createdAt,value
2018-02-16T00:00:23.626Z,12.77
2018-02-16T00:02:50.872Z,13.95
2018-02-16T00:05:17.564Z,14.85
2018-02-16T00:07:44.947Z,16.95
2018-02-16T00:10:11.615Z,16.00
2018-02-16T00:12:38.243Z,12.68
2018-02-16T00:15:04.862Z,13.55
2018-02-16T00:17:31.466Z,12.98
2018-02-16T00:19:58.123Z,11.85
2018-02-16T00:22:24.758Z,15.93
2018-02-16T00:24:51.366Z,14.57
2018-02-16T00:27:18.013Z,11.85
2018-02-16T00:29:45.352Z,13.55
2018-02-16T00:32:11.957Z,11.55
2018-02-16T00:34:38.577Z,12.15
2018-02-16T00:37:05.297Z,14.32
2018-02-16T00:39:31.960Z,16.27
2018-02-16T00:41:58.605Z,14.00
2018-02-16T00:44:25.204Z,10.75
2018-02-16T00:46:52.538Z,7.47
2018-02-16T00:49:19.182Z,9.20
2018-02-16T00:51:45.789Z,7.15
2018-02-16T00:54:12.489Z,8.68
2018-02-16T00:56:39.061Z,8.80
2018-02-16T00:59:05.712Z,7.47
2018-02-16T01:01:32.354Z,9.30
2018-02-16T01:03:58.955Z,7.75
2018-02-16T01:06:25.583Z,8.43
2018-02-16T01:08:52.207Z,8.32
2018-02-16T01:11:19.586Z,7.93
2018-02-16T01:13:46.158Z,9.07
2018-02-16T01:16:12.755Z,8.25
2018-02-16T01:18:39.423Z,7.78
2018-02-16T01:21:06.047Z,11.20
2018-02-16T01:23:32.662Z,8.98
2018-02-16T01:25:59.629Z,8.70
2018-02-16T01:28:26.313Z,9.57
2018-02-16T01:30:53.638Z,9.98
2018-02-16T01:33:21.133Z,6.95
2018-02-16T01:35:48.587Z,6.40
2018-02-16T01:38:15.199Z,7.00
2018-02-16T01:40:42.131Z,6.00
2018-02-16T01:43:08.731Z,7.18
2018-02-16T01:45:35.338Z,6.85
2018-02-16T01:48:02.697Z,6.95
2018-02-16T01:50:30.042Z,5.68
2018-02-16T01:52:57.382Z,5.35
2018-02-16T01:55:23.989Z,5.00
2018-02-16T01:57:50.598Z,5.30
2018-02-16T02:00:17.242Z,4.57
2018-02-16T02:02:44.007Z,6.30
2018-02-16T02:05:10.630Z,8.13
2018-02-16T02:07:37.248Z,4.70
2018-02-16T02:10:03.874Z,8.10
2018-02-16T02:12:31.221Z,5.40
2018-02-16T02:14:57.821Z,5.60
2018-02-16T02:17:24.416Z,9.45
2018-02-16T02:19:51.049Z,7.78
2018-02-16T02:22:17.666Z,7.82
2018-02-16T02:24:44.263Z,7.80
2018-02-16T02:27:10.873Z,5.68
2018-02-16T02:29:37.490Z,6.10
2018-02-16T02:32:04.831Z,7.78
2018-02-16T02:34:31.433Z,6.87
2018-02-16T02:36:58.026Z,6.10
2018-02-16T02:39:25.373Z,8.20
2018-02-16T02:41:53.320Z,6.95
2018-02-16T02:44:19.909Z,6.28
2018-02-16T02:46:46.517Z,6.32
2018-02-16T02:49:13.844Z,6.90
2018-02-16T02:51:41.235Z,10.50
2018-02-16T02:54:07.861Z,7.80
2018-02-16T02:56:35.339Z,6.35
2018-02-16T02:59:02.023Z,8.82
2018-02-16T03:01:28.616Z,7.45
2018-02-16T03:03:55.262Z,8.23
2018-02-16T03:06:22.114Z,11.05
2018-02-16T03:08:48.722Z,8.90
2018-02-16T03:11:15.326Z,7.68
2018-02-16T03:13:41.930Z,5.40
2018-02-16T03:16:08.524Z,4.60
2018-02-16T03:18:35.123Z,4.50
2018-02-16T03:21:01.708Z,121.37
2018-02-16T03:23:28.334Z,4.30
2018-02-16T03:25:54.942Z,4.50
2018-02-16T03:28:21.541Z,4.82
2018-02-16T03:30:48.155Z,5.32
2018-02-16T03:33:14.789Z,5.15
2018-02-16T03:35:41.375Z,5.53
2018-02-16T03:38:07.958Z,4.87
2018-02-16T03:40:34.943Z,4.65
2018-02-16T03:43:01.647Z,3.70
2018-02-16T03:45:28.231Z,3.83
2018-02-16T03:47:54.890Z,3.40
2018-02-16T03:50:21.498Z,3.60
2018-02-16T03:52:48.086Z,3.70
2018-02-16T03:55:15.430Z,3.65
2018-02-16T03:57:42.758Z,3.75
2018-02-16T04:00:09.361Z,3.70
2018-02-16T04:02:35.959Z,3.45
2018-02-16T04:05:03.334Z,3.47
2018-02-16T04:07:29.958Z,5.18
2018-02-16T04:09:56.542Z,5.53
2018-02-16T04:12:23.144Z,6.35
2018-02-16T04:14:50.454Z,5.10
2018-02-16T04:17:17.341Z,5.22
2018-02-16T04:19:43.994Z,5.30
2018-02-16T04:22:10.618Z,7.00
2018-02-16T04:24:37.242Z,7.93
2018-02-16T04:27:04.582Z,5.72
2018-02-16T04:29:31.947Z,4.62
2018-02-16T04:31:58.576Z,5.60
2018-02-16T04:34:26.079Z,7.47
2018-02-16T04:36:52.661Z,4.85
2018-02-16T04:39:20.290Z,5.00
2018-02-16T04:41:46.903Z,4.53
2018-02-16T04:44:13.488Z,21.10
2018-02-16T04:46:40.846Z,3.78
2018-02-16T04:49:07.423Z,26.30
2018-02-16T04:51:34.009Z,3.10
2018-02-16T04:54:00.631Z,3.78
2018-02-16T04:56:27.282Z,4.68
2018-02-16T04:58:55.334Z,6.03
2018-02-16T05:01:21.957Z,5.15
2018-02-16T05:03:48.548Z,4.30
2018-02-16T05:06:15.905Z,5.40
2018-02-16T05:08:43.242Z,5.28
2018-02-16T05:11:09.862Z,263.75
2018-02-16T05:13:36.485Z,25.12
2018-02-16T05:16:03.113Z,4.90
2018-02-16T05:18:29.734Z,72.95
2018-02-16T05:20:56.330Z,25.40
2018-02-16T05:23:23.828Z,5.97
2018-02-16T05:25:50.394Z,7.82
2018-02-16T05:28:17.002Z,6.60
2018-02-16T05:30:43.661Z,7.43
2018-02-16T05:33:10.240Z,7.72
2018-02-16T05:35:36.839Z,5.50
2018-02-16T05:38:03.511Z,4.68
2018-02-16T05:40:30.117Z,4.90
2018-02-16T05:42:56.768Z,34.03
2018-02-16T05:45:23.375Z,8.00
2018-02-16T05:47:49.999Z,10.43
2018-02-16T05:50:16.602Z,58.87
2018-02-16T05:52:43.191Z,11.00
2018-02-16T05:55:09.806Z,178.40
2018-02-16T05:57:36.439Z,5.55
2018-02-16T06:00:03.826Z,4.00
2018-02-16T06:02:30.524Z,51.53
2018-02-16T06:04:57.131Z,82.00
2018-02-16T06:07:23.837Z,9.10
2018-02-16T06:09:50.410Z,48.08
2018-02-16T06:12:17.012Z,33.83
2018-02-16T06:14:43.616Z,227.18
2018-02-16T06:17:10.209Z,271.73
2018-02-16T06:19:36.831Z,12.68
2018-02-16T06:22:03.541Z,23.95
2018-02-16T06:24:30.137Z,22.80
2018-02-16T06:26:56.755Z,25.55
2018-02-16T06:29:23.344Z,34.97
2018-02-16T06:31:49.977Z,93.43
2018-02-16T06:34:17.297Z,124.47
2018-02-16T06:36:43.939Z,28.40
2018-02-16T06:39:10.571Z,54.38
2018-02-16T06:41:37.157Z,206.63
2018-02-16T06:44:03.745Z,25.33
2018-02-16T06:46:30.484Z,18.80
2018-02-16T06:48:57.075Z,43.53
2018-02-16T06:51:23.789Z,9.20
2018-02-16T06:53:51.148Z,12.02
2018-02-16T06:56:18.141Z,14.13
2018-02-16T06:58:44.732Z,16.48
2018-02-16T07:01:11.362Z,8.68
2018-02-16T07:03:38.710Z,9.98
2018-02-16T07:06:05.311Z,12.18
2018-02-16T07:08:31.947Z,20.37
2018-02-16T07:10:58.535Z,9.98
2018-02-16T07:13:25.170Z,8.35
2018-02-16T07:15:51.762Z,10.45
2018-02-16T07:18:18.440Z,9.13
2018-02-16T07:20:45.791Z,9.27
2018-02-16T07:23:13.220Z,9.70
2018-02-16T07:25:39.795Z,13.80
2018-02-16T07:28:06.423Z,18.90
2018-02-16T07:30:33.833Z,13.30
2018-02-16T07:33:00.410Z,9.10
2018-02-16T07:35:27.762Z,8.40
2018-02-16T07:37:55.099Z,10.43
2018-02-16T07:40:21.742Z,8.93
2018-02-16T07:42:48.450Z,7.12
2018-02-16T07:45:15.070Z,8.25
2018-02-16T07:47:41.695Z,9.45
2018-02-16T07:50:08.556Z,13.05
2018-02-16T07:52:35.192Z,11.70
2018-02-16T07:55:01.857Z,9.32
2018-02-16T07:57:28.492Z,9.68
2018-02-16T07:59:55.098Z,15.93
2018-02-16T08:02:21.715Z,15.18
2018-02-16T08:04:48.345Z,25.70
2018-02-16T08:07:14.955Z,12.25
2018-02-16T08:09:41.765Z,11.80
2018-02-16T08:12:08.386Z,10.70
2018-02-16T08:14:34.980Z,7.75
2018-02-16T08:17:02.482Z,7.80
2018-02-16T08:19:29.087Z,8.73
2018-02-16T08:21:55.708Z,8.48
2018-02-16T08:24:22.384Z,6.18
2018-02-16T08:26:49.988Z,7.93
2018-02-16T08:29:16.621Z,8.82
2018-02-16T08:31:43.202Z,11.40
2018-02-16T08:34:10.542Z,21.95
2018-02-16T08:36:37.886Z,5.80
2018-02-16T08:39:04.541Z,28.87
2018-02-16T08:41:31.891Z,7.53
2018-02-16T08:43:59.237Z,7.95
2018-02-16T08:46:26.618Z,6.70
2018-02-16T08:48:53.990Z,6.32
2018-02-16T08:51:20.585Z,7.40
2018-02-16T08:53:47.191Z,5.75
2018-02-16T08:56:13.786Z,5.35
2018-02-16T08:58:40.398Z,4.00
2018-02-16T09:01:06.974Z,4.72
2018-02-16T09:03:33.590Z,6.53
2018-02-16T09:06:00.979Z,5.72
2018-02-16T09:08:28.342Z,2.47
2018-02-16T09:10:54.963Z,2.20
2018-02-16T09:13:21.563Z,1.52
2018-02-16T09:15:48.914Z,3.80
2018-02-16T09:18:15.551Z,3.85
2018-02-16T09:20:42.156Z,3.55
2018-02-16T09:23:08.791Z,2.60
2018-02-16T09:25:35.390Z,2.80
2018-02-16T09:28:02.121Z,2.87
2018-02-16T09:30:29.717Z,3.15
2018-02-16T09:32:56.355Z,2.10
2018-02-16T09:35:22.964Z,3.15
2018-02-16T09:37:49.609Z,2.30
2018-02-16T09:40:18.064Z,2.33
2018-02-16T09:42:44.646Z,2.45
2018-02-16T09:45:12.054Z,2.53
2018-02-16T09:47:39.382Z,2.25
2018-02-16T09:50:06.005Z,3.72
2018-02-16T09:52:32.677Z,5.22
2018-02-16T09:55:00.390Z,5.45
2018-02-16T09:57:27.011Z,5.07
2018-02-16T09:59:53.620Z,4.10
2018-02-16T10:02:20.266Z,5.37
2018-02-16T10:04:46.899Z,5.87
2018-02-16T10:07:14.322Z,5.93
2018-02-16T10:09:41.027Z,3.40
2018-02-16T10:12:07.654Z,4.50
2018-02-16T10:14:34.281Z,3.30
2018-02-16T10:17:01.718Z,3.03
2018-02-16T10:19:28.370Z,3.25
2018-02-16T10:21:54.986Z,2.95
2018-02-16T10:24:21.632Z,4.45
2018-02-16T10:26:48.274Z,3.87
2018-02-16T10:29:15.709Z,3.72
2018-02-16T10:31:42.331Z,6.70
2018-02-16T10:34:08.934Z,7.70
2018-02-16T10:36:35.579Z,5.55
2018-02-16T10:39:02.234Z,3.30
2018-02-16T10:41:29.084Z,4.93
2018-02-16T10:43:55.675Z,3.12
2018-02-16T10:46:22.510Z,3.40
2018-02-16T10:48:49.227Z,2.78
2018-02-16T10:51:15.791Z,5.80
2018-02-16T10:53:42.393Z,4.68
2018-02-16T10:56:09.075Z,3.85
2018-02-16T10:58:35.979Z,3.95
2018-02-16T11:01:08.579Z,8.60
2018-02-16T11:03:38.182Z,2.53
2018-02-16T11:06:11.559Z,2.33
2018-02-16T11:08:44.237Z,3.03
2018-02-16T11:11:10.884Z,3.55
2018-02-16T11:13:38.254Z,3.67
2018-02-16T11:16:05.586Z,2.12
2018-02-16T11:18:32.218Z,2.28
2018-02-16T11:20:58.845Z,2.08
2018-02-16T11:23:25.462Z,4.22
2018-02-16T11:25:52.057Z,2.30
2018-02-16T11:28:18.638Z,2.55
2018-02-16T11:30:45.267Z,2.78
2018-02-16T11:33:11.978Z,2.28
2018-02-16T11:35:38.590Z,2.47
2018-02-16T11:38:05.955Z,4.72
2018-02-16T11:40:32.602Z,3.80
2018-02-16T11:42:59.196Z,11.80
2018-02-16T11:45:25.852Z,3.70
2018-02-16T11:47:52.489Z,4.40
2018-02-16T11:50:19.130Z,3.53
2018-02-16T11:52:46.488Z,4.35
2018-02-16T11:55:13.170Z,2.45
2018-02-16T11:57:39.822Z,1.40
2018-02-16T12:00:06.470Z,3.27
2018-02-16T12:02:33.445Z,1.25
2018-02-16T12:05:00.825Z,1.40
2018-02-16T12:07:27.451Z,2.15
2018-02-16T12:09:54.822Z,1.20
2018-02-16T12:12:21.451Z,2.05
2018-02-16T12:14:48.086Z,21.08
2018-02-16T12:17:14.743Z,19.42
2018-02-16T12:19:41.360Z,40.78
2018-02-16T12:22:08.012Z,26.92
2018-02-16T12:24:34.666Z,27.67
2018-02-16T12:27:01.336Z,19.67
2018-02-16T12:29:27.986Z,18.20
2018-02-16T12:31:54.615Z,139.70
2018-02-16T12:34:21.203Z,61.65
2018-02-16T12:36:47.834Z,6.22
2018-02-16T12:39:14.468Z,6.75
2018-02-16T12:41:41.132Z,4.72
2018-02-16T12:44:07.757Z,4.47
2018-02-16T12:46:34.363Z,10.43
2018-02-16T12:49:01.068Z,3.75
2018-02-16T12:51:27.713Z,3.05
2018-02-16T12:53:54.355Z,108.32
2018-02-16T12:56:21.043Z,29.48
2018-02-16T12:58:47.710Z,124.75
2018-02-16T13:01:14.359Z,127.00
2018-02-16T13:03:41.017Z,100.62
2018-02-16T13:06:07.701Z,56.10
2018-02-16T13:08:34.379Z,49.90
2018-02-16T13:11:02.327Z,65.78
2018-02-16T13:13:29.877Z,21.83
2018-02-16T13:15:56.581Z,100.15
2018-02-16T13:18:23.207Z,94.75
2018-02-16T13:20:49.847Z,166.37
2018-02-16T13:23:16.561Z,25.83
2018-02-16T13:25:43.206Z,3.10
2018-02-16T13:28:09.941Z,77.72
2018-02-16T13:30:37.299Z,134.40
2018-02-16T13:33:03.994Z,129.12
2018-02-16T13:35:30.626Z,123.82
2018-02-16T13:37:57.252Z,73.25
2018-02-16T13:40:23.890Z,20.30
2018-02-16T13:42:50.574Z,2.17
2018-02-16T13:45:17.224Z,194.57
2018-02-16T13:47:43.839Z,189.90
2018-02-16T13:50:11.229Z,206.05
2018-02-16T13:52:38.591Z,189.68
2018-02-16T13:55:06.046Z,237.77
2018-02-16T13:57:32.676Z,241.52
2018-02-16T14:00:00.974Z,228.20
2018-02-16T14:02:28.355Z,93.35
2018-02-16T14:04:55.024Z,116.60
2018-02-16T14:07:21.659Z,226.25
2018-02-16T14:09:48.278Z,178.98
2018-02-16T14:12:15.783Z,5.03
2018-02-16T14:14:43.208Z,2.97
2018-02-16T14:17:09.880Z,10.57
2018-02-16T14:19:37.230Z,42.55
2018-02-16T14:22:03.904Z,100.65
2018-02-16T14:24:31.270Z,7.37
2018-02-16T14:26:57.941Z,27.98
2018-02-16T14:29:24.542Z,298.92
2018-02-16T14:31:51.152Z,277.20
2018-02-16T14:34:18.535Z,125.75
2018-02-16T14:36:45.171Z,228.27
2018-02-16T14:39:11.800Z,4.40
2018-02-16T14:41:38.397Z,3.92
2018-02-16T14:44:05.196Z,17.37
2018-02-16T14:46:31.848Z,192.95
2018-02-16T14:48:58.459Z,351.08
2018-02-16T14:51:25.095Z,332.52
2018-02-16T14:53:51.749Z,354.08
2018-02-16T14:56:18.366Z,169.90
2018-02-16T14:58:45.133Z,345.70
2018-02-16T15:01:11.864Z,335.63
2018-02-16T15:03:38.538Z,340.33
2018-02-16T15:06:05.210Z,285.35
2018-02-16T15:08:31.846Z,242.27
2018-02-16T15:10:59.207Z,213.77
2018-02-16T15:13:25.858Z,215.10
2018-02-16T15:15:52.530Z,208.70
2018-02-16T15:18:19.179Z,176.93
2018-02-16T15:20:45.821Z,215.27
2018-02-16T15:23:13.230Z,208.02
2018-02-16T15:25:39.864Z,162.50
2018-02-16T15:28:06.572Z,124.55
2018-02-16T15:30:34.135Z,110.25
2018-02-16T15:33:00.772Z,95.53
2018-02-16T15:35:28.208Z,22.62
2018-02-16T15:37:54.858Z,12.07
2018-02-16T15:40:22.224Z,15.38
2018-02-16T15:42:48.810Z,11.23
2018-02-16T15:45:15.458Z,5.93
2018-02-16T15:47:42.091Z,6.20
2018-02-16T15:50:08.750Z,16.17
2018-02-16T15:52:36.131Z,6.80
2018-02-16T15:55:03.523Z,7.43
2018-02-16T15:57:30.119Z,7.40
2018-02-16T15:59:57.903Z,8.75
2018-02-16T16:02:24.527Z,9.80
2018-02-16T16:04:51.162Z,10.43
2018-02-16T16:07:17.747Z,16.20
2018-02-16T16:09:44.359Z,11.00
2018-02-16T16:12:11.002Z,9.85
2018-02-16T16:14:37.602Z,7.28
2018-02-16T16:17:04.950Z,19.95
2018-02-16T16:19:31.542Z,10.25
2018-02-16T16:21:58.180Z,10.57
2018-02-16T16:24:24.790Z,10.95
2018-02-16T16:26:51.447Z,10.88
2018-02-16T16:29:18.027Z,6.35
2018-02-16T16:31:45.389Z,6.75
2018-02-16T16:34:12.032Z,10.23
2018-02-16T16:36:39.428Z,6.25
2018-02-16T16:39:06.080Z,14.52
2018-02-16T16:41:32.713Z,7.80
2018-02-16T16:43:59.399Z,10.85
2018-02-16T16:46:26.055Z,10.02
2018-02-16T16:48:52.689Z,8.80
2018-02-16T16:51:19.326Z,28.15
2018-02-16T16:53:45.971Z,31.75
2018-02-16T16:56:12.593Z,70.03
2018-02-16T16:58:40.006Z,60.22
2018-02-16T17:01:06.649Z,7.30
2018-02-16T17:03:33.270Z,7.55
2018-02-16T17:05:59.866Z,23.45
2018-02-16T17:08:27.296Z,14.95
2018-02-16T17:10:54.145Z,16.08
2018-02-16T17:13:20.770Z,13.95
2018-02-16T17:15:48.177Z,417.42
2018-02-16T17:18:14.842Z,107.47
2018-02-16T17:20:41.466Z,190.95
2018-02-16T17:23:08.075Z,280.98
2018-02-16T17:25:34.760Z,81.90
2018-02-16T17:28:01.477Z,49.53
2018-02-16T17:30:28.082Z,32.17
2018-02-16T17:32:54.746Z,24.05
2018-02-16T17:35:21.387Z,11.75
2018-02-16T17:37:48.003Z,11.12
2018-02-16T17:40:14.599Z,14.52
2018-02-16T17:42:41.242Z,17.58
2018-02-16T17:45:07.922Z,14.85
2018-02-16T17:47:34.548Z,24.05
2018-02-16T17:50:01.159Z,57.45
2018-02-16T17:52:28.558Z,9.95
2018-02-16T17:54:55.207Z,20.12
2018-02-16T17:57:21.883Z,18.35
2018-02-16T17:59:48.551Z,22.65
2018-02-16T18:02:15.256Z,37.13
2018-02-16T18:04:41.917Z,21.90
2018-02-16T18:07:09.292Z,20.88
2018-02-16T18:09:36.008Z,14.23
2018-02-16T18:12:02.695Z,13.82
2018-02-16T18:14:29.467Z,29.65
2018-02-16T18:16:56.178Z,25.60
2018-02-16T18:19:23.546Z,26.25
2018-02-16T18:21:50.179Z,21.40
2018-02-16T18:24:16.849Z,16.35
2018-02-16T18:26:44.214Z,22.83
2018-02-16T18:29:10.998Z,19.37
2018-02-16T18:31:38.338Z,18.90
2018-02-16T18:34:05.098Z,19.83
2018-02-16T18:36:31.797Z,25.48
2018-02-16T18:38:58.466Z,28.30
2018-02-16T18:41:25.199Z,31.58
2018-02-16T18:43:51.864Z,22.58
2018-02-16T18:46:18.556Z,14.40
2018-02-16T18:48:45.239Z,16.33
2018-02-16T18:51:11.925Z,20.45
2018-02-16T18:53:38.549Z,23.60
2018-02-16T18:56:05.350Z,18.65
2018-02-16T18:58:31.987Z,20.00
2018-02-16T19:00:58.629Z,40.03
2018-02-16T19:03:25.264Z,18.00
2018-02-16T19:05:51.864Z,17.35
2018-02-16T19:08:18.516Z,13.70
2018-02-16T19:10:45.174Z,24.73
2018-02-16T19:13:11.811Z,14.87
2018-02-16T19:15:38.464Z,30.67
2018-02-16T19:18:05.202Z,9.63
2018-02-16T19:20:31.931Z,10.32
2018-02-16T19:22:58.585Z,10.15
2018-02-16T19:25:25.263Z,16.10
2018-02-16T19:27:52.593Z,12.73
2018-02-16T19:30:19.277Z,12.40
2018-02-16T19:32:45.873Z,12.63
2018-02-16T19:35:13.344Z,10.40
2018-02-16T19:37:40.808Z,11.43
2018-02-16T19:40:08.219Z,15.38
2018-02-16T19:42:34.870Z,15.38
2018-02-16T19:45:01.524Z,39.58
2018-02-16T19:47:28.193Z,23.60
2018-02-16T19:49:54.814Z,23.33
2018-02-16T19:52:21.464Z,24.17
2018-02-16T19:54:48.052Z,14.05
2018-02-16T19:57:14.686Z,12.80
2018-02-16T19:59:41.295Z,13.30
2018-02-16T20:02:07.978Z,12.30
2018-02-16T20:04:34.705Z,18.05
2018-02-16T20:07:01.397Z,20.45
2018-02-16T20:09:28.065Z,23.38
2018-02-16T20:11:54.715Z,33.30
2018-02-16T20:14:21.379Z,17.70
2018-02-16T20:16:48.063Z,15.48
2018-02-16T20:19:15.545Z,11.70
2018-02-16T20:21:42.304Z,14.02
2018-02-16T20:24:09.696Z,49.58
2018-02-16T20:26:36.350Z,15.40
2018-02-16T20:29:03.007Z,21.67
2018-02-16T20:31:29.701Z,16.33
2018-02-16T20:33:56.415Z,15.18
2018-02-16T20:36:23.065Z,20.48
2018-02-16T20:38:49.716Z,17.70
2018-02-16T20:41:16.352Z,17.85
2018-02-16T20:43:42.967Z,19.30
2018-02-16T20:46:09.679Z,17.40
2018-02-16T20:48:36.428Z,16.80
2018-02-16T20:51:03.087Z,21.70
2018-02-16T20:53:29.784Z,19.12
2018-02-16T20:55:56.414Z,17.60
2018-02-16T20:58:23.051Z,18.17
2018-02-16T21:00:49.762Z,20.73
2018-02-16T21:03:16.399Z,17.30
2018-02-16T21:05:43.801Z,14.65
2018-02-16T21:08:10.460Z,14.93
2018-02-16T21:10:37.067Z,18.52
2018-02-16T21:13:03.779Z,24.48
2018-02-16T21:15:30.411Z,22.20
2018-02-16T21:17:57.176Z,19.60
2018-02-16T21:20:23.878Z,19.40
2018-02-16T21:22:50.615Z,15.43
2018-02-16T21:25:18.018Z,17.77
2018-02-16T21:27:44.658Z,16.87
2018-02-16T21:30:11.292Z,14.90
2018-02-16T21:32:37.892Z,15.10
2018-02-16T21:35:05.303Z,19.70
2018-02-16T21:37:32.732Z,22.10
2018-02-16T21:39:59.371Z,20.02
2018-02-16T21:42:26.058Z,16.67
2018-02-16T21:44:52.667Z,18.90
2018-02-16T21:47:20.049Z,21.85
2018-02-16T21:49:46.670Z,18.02
2018-02-16T21:52:13.293Z,18.12
2018-02-16T21:54:39.898Z,16.55
2018-02-16T21:57:06.502Z,21.75
2018-02-16T21:59:33.166Z,20.02
2018-02-16T22:02:00.071Z,24.30
2018-02-16T22:04:26.679Z,17.50
2018-02-16T22:06:53.330Z,21.37
2018-02-16T22:09:19.959Z,23.15
2018-02-16T22:11:47.301Z,24.10
2018-02-16T22:14:14.104Z,16.98
2018-02-16T22:16:40.694Z,21.30
2018-02-16T22:19:07.364Z,16.62
2018-02-16T22:21:34.007Z,21.25
2018-02-16T22:24:01.398Z,16.98
2018-02-16T22:26:28.111Z,21.70
2018-02-16T22:28:56.366Z,22.08
2018-02-16T22:31:22.998Z,20.15
2018-02-16T22:33:49.650Z,18.73
2018-02-16T22:36:16.278Z,16.85
2018-02-16T22:38:42.911Z,19.67
2018-02-16T22:41:09.586Z,16.00
2018-02-16T22:43:36.954Z,16.55
2018-02-16T22:46:03.569Z,15.38
2018-02-16T22:48:30.930Z,13.25
2018-02-16T22:50:58.323Z,14.80
2018-02-16T22:53:25.403Z,17.25
2018-02-16T22:55:52.055Z,17.77
2018-02-16T22:58:19.415Z,14.20
2018-02-16T23:00:46.778Z,20.05
2018-02-16T23:03:13.398Z,17.70
2018-02-16T23:05:40.774Z,13.07
2018-02-16T23:08:07.384Z,15.98
2018-02-16T23:10:34.026Z,14.63
2018-02-16T23:13:01.394Z,16.70
2018-02-16T23:15:28.763Z,11.98
2018-02-16T23:17:55.380Z,15.02
2018-02-16T23:20:22.022Z,13.75
2018-02-16T23:22:49.370Z,17.37
2018-02-16T23:25:15.986Z,12.70
2018-02-16T23:27:42.620Z,14.93
2018-02-16T23:30:10.026Z,16.67
2018-02-16T23:32:36.685Z,24.45
2018-02-16T23:35:03.287Z,19.67
2018-02-16T23:37:30.645Z,15.15
2018-02-16T23:39:58.052Z,17.20
2018-02-16T23:42:24.611Z,18.90
2018-02-16T23:44:51.321Z,20.33
2018-02-16T23:47:17.946Z,21.08
2018-02-16T23:49:45.274Z,24.52
2018-02-16T23:52:11.901Z,21.65
2018-02-16T23:54:38.655Z,17.05
2018-02-16T23:57:05.326Z,22.08
2018-02-16T23:59:32.741Z,20.20
